createdAt,value
2022-12-11T00:01:34.066Z,2.45
2022-12-11T00:04:37.091Z,3.30
2022-12-11T00:07:40.866Z,2.95
2022-12-11T00:10:50.788Z,2.33
2022-12-11T00:13:53.685Z,2.50
2022-12-11T00:16:56.770Z,2.88
2022-12-11T00:19:59.772Z,2.50
2022-12-11T00:23:02.900Z,1.98
2022-12-11T00:26:07.997Z,2.50
2022-12-11T00:29:15.097Z,3.03
2022-12-11T00:32:18.607Z,2.60
2022-12-11T00:35:22.310Z,3.10
2022-12-11T00:38:25.644Z,2.40
2022-12-11T00:41:29.279Z,2.13
2022-12-11T00:44:32.327Z,2.63
2022-12-11T00:47:35.334Z,2.08
2022-12-11T00:50:39.334Z,3.75
2022-12-11T00:53:42.314Z,2.33
2022-12-11T00:56:45.692Z,2.72
2022-12-11T00:59:49.276Z,1.80
2022-12-11T01:02:55.549Z,3.35
2022-12-11T01:05:58.621Z,5.28
2022-12-11T01:09:20.511Z,4.63
2022-12-11T01:12:23.509Z,2.60
2022-12-11T01:15:31.989Z,5.18
2022-12-11T01:18:35.812Z,5.43
2022-12-11T01:21:39.052Z,4.50
2022-12-11T01:24:42.055Z,5.70
2022-12-11T01:27:45.832Z,6.20
2022-12-11T01:30:48.965Z,4.70
2022-12-11T01:33:55.730Z,4.10
2022-12-11T01:37:01.177Z,6.75
2022-12-11T01:40:07.269Z,4.93
2022-12-11T01:43:12.385Z,4.28
2022-12-11T01:46:15.362Z,6.60
2022-12-11T01:49:21.380Z,4.05
2022-12-11T01:52:25.703Z,4.95
2022-12-11T01:55:28.908Z,5.13
2022-12-11T01:58:35.444Z,4.65
2022-12-11T02:01:57.817Z,4.20
2022-12-11T02:05:04.400Z,4.50
2022-12-11T02:08:09.298Z,3.80
2022-12-11T02:11:21.891Z,4.93
2022-12-11T02:14:37.794Z,7.60
2022-12-11T02:18:00.988Z,10.50
2022-12-11T02:21:32.761Z,9.52
2022-12-11T02:25:08.076Z,10.75
2022-12-11T02:28:30.501Z,8.65
2022-12-11T02:31:36.664Z,6.68
2022-12-11T02:34:50.018Z,7.20
2022-12-11T02:37:59.991Z,6.38
2022-12-11T02:41:05.809Z,7.22
2022-12-11T02:44:11.410Z,7.93
2022-12-11T02:47:17.385Z,7.28
2022-12-11T02:50:24.160Z,6.40
2022-12-11T02:53:31.419Z,5.53
2022-12-11T02:56:45.214Z,9.00
2022-12-11T02:59:50.094Z,7.53
2022-12-11T03:02:53.342Z,7.38
2022-12-11T03:05:57.050Z,7.70
2022-12-11T03:09:00.828Z,6.45
2022-12-11T03:12:03.998Z,7.90
2022-12-11T03:15:13.871Z,6.03
2022-12-11T03:18:43.880Z,5.55
2022-12-11T03:21:53.778Z,7.57
2022-12-11T03:25:04.245Z,5.20
2022-12-11T03:28:16.468Z,7.60
2022-12-11T03:31:30.406Z,4.35
2022-12-11T03:34:48.088Z,6.13
2022-12-11T03:38:00.349Z,4.13
2022-12-11T03:41:05.895Z,5.25
2022-12-11T03:44:10.074Z,3.30
2022-12-11T03:47:18.748Z,5.70
2022-12-11T03:50:24.989Z,9.27
2022-12-11T03:53:29.733Z,6.07
2022-12-11T03:56:36.670Z,6.05
2022-12-11T03:59:43.697Z,5.68
2022-12-11T04:03:12.986Z,8.07
2022-12-11T04:06:17.236Z,6.65
2022-12-11T04:09:20.861Z,5.72
2022-12-11T04:12:25.006Z,6.57
2022-12-11T04:15:28.488Z,4.13
2022-12-11T04:18:50.954Z,4.97
2022-12-11T04:22:12.986Z,4.32
2022-12-11T04:25:16.811Z,4.07
2022-12-11T04:28:20.622Z,5.03
2022-12-11T04:31:24.672Z,4.95
2022-12-11T04:34:28.222Z,6.85
2022-12-11T04:37:35.009Z,5.15
2022-12-11T04:40:38.803Z,6.07
2022-12-11T04:43:45.967Z,5.47
2022-12-11T04:46:49.947Z,4.45
2022-12-11T04:49:56.276Z,4.22
2022-12-11T04:53:00.282Z,4.70
2022-12-11T04:56:07.497Z,6.18
2022-12-11T04:59:10.937Z,6.45
2022-12-11T05:02:15.078Z,8.45
2022-12-11T05:05:18.824Z,6.90
2022-12-11T05:08:23.452Z,5.40
2022-12-11T05:11:27.153Z,4.40
2022-12-11T05:14:32.669Z,3.88
2022-12-11T05:17:36.258Z,6.13
2022-12-11T05:20:39.670Z,6.20
2022-12-11T05:23:43.945Z,6.55
2022-12-11T05:26:47.436Z,8.18
2022-12-11T05:29:54.862Z,5.38
2022-12-11T05:33:03.132Z,4.78
2022-12-11T05:36:08.325Z,5.68
2022-12-11T05:39:12.916Z,5.30
2022-12-11T05:42:16.682Z,3.70
2022-12-11T05:45:19.930Z,5.00
2022-12-11T05:48:24.346Z,4.22
2022-12-11T05:51:28.949Z,5.35
2022-12-11T05:54:32.605Z,5.95
2022-12-11T05:57:36.286Z,6.35
2022-12-11T06:00:43.114Z,8.05
2022-12-11T06:03:46.547Z,9.23
2022-12-11T06:06:50.344Z,10.55
2022-12-11T06:09:54.094Z,7.45
2022-12-11T06:12:56.995Z,8.43
2022-12-11T06:16:09.132Z,7.28
2022-12-11T06:19:16.170Z,7.55
2022-12-11T06:22:19.942Z,7.50
2022-12-11T06:25:23.680Z,6.07
2022-12-11T06:28:27.940Z,6.03
2022-12-11T06:31:31.551Z,8.32
2022-12-11T06:34:35.611Z,5.93
2022-12-11T06:37:39.837Z,5.80
2022-12-11T06:40:43.342Z,5.22
2022-12-11T06:43:46.780Z,4.90
2022-12-11T06:46:50.969Z,7.15
2022-12-11T06:49:54.789Z,7.95
2022-12-11T06:52:58.566Z,5.72
2022-12-11T06:56:11.385Z,5.60
2022-12-11T06:59:15.622Z,7.03
2022-12-11T07:02:22.216Z,7.13
2022-12-11T07:05:26.316Z,4.32
2022-12-11T07:08:30.375Z,5.75
2022-12-11T07:11:34.518Z,4.57
2022-12-11T07:14:37.578Z,5.15
2022-12-11T07:17:41.064Z,5.40
2022-12-11T07:20:44.152Z,8.25
2022-12-11T07:23:49.546Z,8.50
2022-12-11T07:26:53.382Z,10.02
2022-12-11T07:29:57.144Z,12.60
2022-12-11T07:33:00.785Z,12.73
2022-12-11T07:36:06.579Z,15.40
2022-12-11T07:39:12.664Z,12.98
2022-12-11T07:42:16.851Z,11.80
2022-12-11T07:45:20.202Z,19.23
2022-12-11T07:48:23.105Z,19.80
2022-12-11T07:51:31.924Z,22.08
2022-12-11T07:54:35.288Z,21.08
2022-12-11T07:57:38.362Z,24.77
2022-12-11T08:00:42.011Z,23.95
2022-12-11T08:03:45.576Z,21.25
2022-12-11T08:06:49.186Z,24.75
2022-12-11T08:09:52.661Z,22.75
2022-12-11T08:12:56.108Z,23.50
2022-12-11T08:16:00.144Z,32.17
2022-12-11T08:19:04.008Z,38.08
2022-12-11T08:22:07.424Z,44.80
2022-12-11T08:25:11.841Z,37.45
2022-12-11T08:28:15.685Z,35.05
2022-12-11T08:31:20.263Z,31.63
2022-12-11T08:34:23.945Z,26.10
2022-12-11T08:37:26.977Z,27.13
2022-12-11T08:40:29.922Z,23.45
2022-12-11T08:43:35.055Z,22.48
2022-12-11T08:46:38.814Z,19.88
2022-12-11T08:49:42.903Z,21.65
2022-12-11T08:52:48.137Z,24.17
2022-12-11T08:55:51.952Z,25.95
2022-12-11T08:58:55.204Z,26.27
2022-12-11T09:01:58.722Z,28.52
2022-12-11T09:05:02.497Z,23.10
2022-12-11T09:08:06.534Z,22.00
2022-12-11T09:11:16.110Z,21.45
2022-12-11T09:14:20.227Z,19.90
2022-12-11T09:17:23.191Z,20.25
2022-12-11T09:20:26.964Z,20.65
2022-12-11T09:23:30.229Z,26.77
2022-12-11T09:26:34.006Z,22.85
2022-12-11T09:29:37.295Z,24.25
2022-12-11T09:32:41.596Z,26.27
2022-12-11T09:35:45.331Z,22.98
2022-12-11T09:38:49.201Z,21.02
2022-12-11T09:42:05.654Z,23.27
2022-12-11T09:45:15.006Z,21.48
2022-12-11T09:48:23.071Z,11.32
2022-12-11T09:51:48.511Z,14.73
2022-12-11T09:54:56.471Z,20.75
2022-12-11T09:58:12.827Z,22.85
2022-12-11T10:01:21.088Z,17.23
2022-12-11T10:04:28.314Z,16.48
2022-12-11T10:07:37.539Z,14.93
2022-12-11T10:11:21.584Z,15.98
2022-12-11T10:15:02.553Z,15.02
2022-12-11T10:18:13.949Z,15.95
2022-12-11T10:21:19.197Z,15.75
2022-12-11T10:28:14.471Z,13.90
2022-12-11T10:31:33.526Z,15.55
2022-12-11T10:34:45.959Z,14.60
2022-12-11T10:37:50.092Z,13.38
2022-12-11T10:40:58.073Z,14.10
2022-12-11T10:44:04.679Z,14.38
2022-12-11T10:47:18.207Z,25.40
2022-12-11T10:50:25.312Z,28.08
2022-12-11T10:53:29.953Z,33.80
2022-12-11T10:56:39.434Z,35.08
2022-12-11T10:59:51.183Z,27.13
2022-12-11T11:02:54.534Z,21.10
2022-12-11T11:06:08.617Z,22.63
2022-12-11T11:09:37.436Z,32.83
2022-12-11T11:12:49.265Z,34.22
2022-12-11T11:16:04.562Z,35.58
2022-12-11T11:19:08.523Z,41.28
2022-12-11T11:22:19.413Z,49.47
2022-12-11T11:25:25.738Z,62.20
2022-12-11T11:28:35.084Z,76.85
2022-12-11T11:31:38.144Z,76.13
2022-12-11T11:34:41.917Z,82.28
2022-12-11T11:37:59.295Z,120.88
2022-12-11T11:41:29.970Z,115.47
2022-12-11T11:44:39.798Z,113.63
2022-12-11T11:47:54.724Z,108.60
2022-12-11T11:50:59.207Z,131.30
2022-12-11T11:54:10.323Z,137.68
2022-12-11T11:57:43.269Z,125.85
2022-12-11T12:00:47.191Z,109.80
2022-12-11T12:03:52.755Z,97.68
2022-12-11T12:07:35.211Z,82.55
2022-12-11T12:11:12.448Z,75.60
2022-12-11T12:18:26.712Z,58.92
2022-12-11T12:21:37.259Z,53.90
2022-12-11T12:25:18.011Z,56.30
2022-12-11T12:28:33.699Z,48.50
2022-12-11T12:32:27.198Z,39.08
2022-12-11T12:35:39.021Z,37.05
2022-12-11T12:39:14.035Z,36.38
2022-12-11T12:42:23.624Z,32.70
2022-12-11T12:45:49.929Z,26.80
2022-12-11T12:48:55.490Z,23.00
2022-12-11T12:51:59.801Z,28.83
2022-12-11T12:55:26.157Z,23.15
2022-12-11T12:58:47.090Z,24.98
2022-12-11T13:01:57.946Z,21.80
2022-12-11T13:05:08.320Z,20.65
2022-12-11T13:08:13.844Z,18.30
2022-12-11T13:11:19.673Z,16.55
2022-12-11T13:14:28.602Z,18.92
2022-12-11T13:17:39.990Z,17.15
2022-12-11T13:20:52.027Z,15.75
2022-12-11T13:23:56.337Z,23.95
2022-12-11T13:27:12.138Z,25.10
2022-12-11T13:30:15.980Z,28.92
2022-12-11T13:33:19.955Z,22.95
2022-12-11T13:36:26.465Z,26.92
2022-12-11T13:39:36.001Z,25.55
2022-12-11T13:42:55.400Z,28.23
2022-12-11T13:46:05.760Z,20.85
2022-12-11T13:49:23.866Z,27.85
2022-12-11T13:52:29.163Z,27.85
2022-12-11T13:55:35.029Z,18.60
2022-12-11T13:58:40.697Z,25.58
2022-12-11T14:01:44.052Z,17.70
2022-12-11T14:04:51.831Z,28.00
2022-12-11T14:07:59.465Z,22.90
2022-12-11T14:11:03.813Z,24.27
2022-12-11T14:14:18.626Z,24.17
2022-12-11T14:17:34.881Z,24.80
2022-12-11T14:20:37.943Z,23.55
2022-12-11T14:23:41.607Z,14.82
2022-12-11T14:26:52.845Z,21.63
2022-12-11T14:29:57.312Z,22.05
2022-12-11T14:33:04.271Z,22.17
2022-12-11T14:36:08.625Z,23.88
2022-12-11T14:39:20.710Z,18.08
2022-12-11T14:42:46.836Z,19.88
2022-12-11T14:45:58.025Z,17.17
2022-12-11T14:49:06.598Z,12.30
2022-12-11T14:52:34.847Z,16.30
2022-12-11T14:55:41.066Z,9.75
2022-12-11T14:58:52.737Z,13.25
2022-12-11T15:02:05.169Z,10.35
2022-12-11T15:05:20.829Z,8.88
2022-12-11T15:08:28.894Z,11.85
2022-12-11T15:11:33.323Z,9.80
2022-12-11T15:14:36.487Z,7.90
2022-12-11T15:17:41.510Z,7.95
2022-12-11T15:20:45.168Z,8.93
2022-12-11T15:23:57.386Z,6.03
2022-12-11T15:27:01.795Z,9.30
2022-12-11T15:30:27.348Z,5.88
2022-12-11T15:33:34.236Z,8.55
2022-12-11T15:36:38.742Z,8.65
2022-12-11T15:39:41.984Z,9.65
2022-12-11T15:42:45.740Z,9.10
2022-12-11T15:45:49.495Z,11.63
2022-12-11T15:48:53.775Z,11.20
2022-12-11T15:51:57.617Z,10.32
2022-12-11T15:55:01.386Z,6.22
2022-12-11T15:58:16.637Z,6.25
2022-12-11T16:01:21.444Z,6.65
2022-12-11T16:04:24.707Z,6.40
2022-12-11T16:07:27.757Z,8.20
2022-12-11T16:10:31.245Z,5.47
2022-12-11T16:13:34.893Z,6.47
2022-12-11T16:16:38.721Z,8.25
2022-12-11T16:19:43.129Z,5.90
2022-12-11T16:22:46.129Z,6.15
2022-12-11T16:25:49.221Z,6.45
2022-12-11T16:28:52.967Z,3.55
2022-12-11T16:31:56.321Z,5.10
2022-12-11T16:35:05.046Z,2.53
2022-12-11T16:38:08.361Z,3.22
2022-12-11T16:41:11.337Z,4.25
2022-12-11T16:44:14.745Z,2.70
2022-12-11T16:47:17.657Z,3.72
2022-12-11T16:50:22.006Z,2.60
2022-12-11T16:53:26.049Z,2.03
2022-12-11T16:56:29.725Z,3.13
2022-12-11T16:59:37.054Z,3.13
2022-12-11T17:02:40.995Z,1.90
2022-12-11T17:05:45.705Z,2.67
2022-12-11T17:08:49.157Z,2.40
2022-12-11T17:11:54.082Z,2.53
2022-12-11T17:14:57.993Z,1.92
2022-12-11T17:18:01.635Z,2.40
2022-12-11T17:21:19.191Z,3.30
2022-12-11T17:24:23.091Z,3.08
2022-12-11T17:27:26.034Z,2.40
2022-12-11T17:30:29.008Z,2.88
2022-12-11T17:33:31.972Z,3.13
2022-12-11T17:36:34.949Z,3.05
2022-12-11T17:39:39.646Z,2.90
2022-12-11T17:42:45.380Z,1.92
2022-12-11T17:45:53.280Z,3.45
2022-12-11T17:48:59.867Z,2.50
2022-12-11T17:52:03.084Z,3.33
2022-12-11T17:55:07.662Z,2.70
2022-12-11T17:58:17.427Z,2.75
2022-12-11T18:01:21.051Z,3.25
2022-12-11T18:04:25.054Z,2.28
2022-12-11T18:07:28.060Z,1.88
2022-12-11T18:10:31.775Z,2.65
2022-12-11T18:13:34.940Z,2.85
2022-12-11T18:16:39.383Z,2.63
2022-12-11T18:19:46.027Z,2.50
2022-12-11T18:22:52.151Z,2.65
2022-12-11T18:25:55.548Z,2.42
2022-12-11T18:28:58.672Z,2.75
2022-12-11T18:32:01.608Z,2.30
2022-12-11T18:35:05.980Z,2.65
2022-12-11T18:38:09.922Z,2.90
2022-12-11T18:41:17.807Z,2.63
2022-12-11T18:44:23.161Z,3.63
2022-12-11T18:47:27.303Z,2.90
2022-12-11T18:50:31.055Z,3.33
2022-12-11T18:53:35.633Z,2.78
2022-12-11T18:56:39.375Z,3.30
2022-12-11T18:59:43.363Z,2.42
2022-12-11T19:02:47.125Z,2.50
2022-12-11T19:05:50.718Z,1.88
2022-12-11T19:08:54.450Z,2.58
2022-12-11T19:11:58.051Z,3.10
2022-12-11T19:15:01.710Z,2.80
2022-12-11T19:18:05.970Z,3.80
2022-12-11T19:21:13.953Z,2.13
2022-12-11T19:24:21.264Z,3.53
2022-12-11T19:27:24.560Z,2.33
2022-12-11T19:30:28.495Z,3.25
2022-12-11T19:33:31.738Z,3.10
2022-12-11T19:36:37.485Z,2.05
2022-12-11T19:39:41.421Z,2.63
2022-12-11T19:42:45.159Z,2.08
2022-12-11T19:45:48.868Z,2.17
2022-12-11T19:48:55.034Z,2.28
2022-12-11T19:51:58.798Z,3.85
2022-12-11T19:55:05.483Z,1.80
2022-12-11T19:58:08.873Z,2.20
2022-12-11T20:01:26.812Z,1.65
2022-12-11T20:04:30.199Z,3.28
2022-12-11T20:07:33.485Z,2.42
2022-12-11T20:10:37.251Z,2.60
2022-12-11T20:13:46.250Z,3.08
2022-12-11T20:20:13.454Z,2.00
2022-12-11T20:23:17.158Z,2.75
2022-12-11T20:26:24.889Z,2.40
2022-12-11T20:29:27.824Z,2.33
2022-12-11T20:32:31.103Z,2.58
2022-12-11T20:35:35.062Z,2.97
2022-12-11T20:38:38.887Z,2.70
2022-12-11T20:41:42.686Z,3.33
2022-12-11T20:44:49.174Z,2.10
2022-12-11T20:47:53.186Z,2.45
2022-12-11T20:51:01.884Z,2.60
2022-12-11T20:54:05.664Z,3.30
2022-12-11T20:57:08.916Z,2.42
2022-12-11T21:00:13.556Z,3.35
2022-12-11T21:03:19.518Z,1.83
2022-12-11T21:06:25.946Z,4.10
2022-12-11T21:09:30.398Z,1.75
2022-12-11T21:12:34.273Z,2.65
2022-12-11T21:15:39.287Z,4.40
2022-12-11T21:18:44.783Z,2.53
2022-12-11T21:21:49.614Z,3.70
2022-12-11T21:24:53.293Z,3.65
2022-12-11T21:27:57.183Z,2.70
2022-12-11T21:31:06.469Z,2.72
2022-12-11T21:34:10.932Z,2.35
2022-12-11T21:37:13.952Z,2.55
2022-12-11T21:40:19.683Z,2.85
2022-12-11T21:43:24.085Z,3.47
2022-12-11T21:46:29.782Z,3.03
2022-12-11T21:49:33.549Z,4.07
2022-12-11T21:52:39.328Z,4.13
2022-12-11T21:55:43.322Z,3.58
2022-12-11T21:58:47.058Z,3.63
2022-12-11T22:01:50.821Z,3.03
2022-12-11T22:04:55.143Z,3.72
2022-12-11T22:07:58.870Z,4.20
2022-12-11T22:11:02.854Z,3.03
2022-12-11T22:14:07.616Z,4.10
2022-12-11T22:17:11.576Z,2.28
2022-12-11T22:20:15.219Z,3.40
2022-12-11T22:23:19.263Z,3.33
2022-12-11T22:26:26.378Z,3.40
2022-12-11T22:29:30.257Z,3.03
2022-12-11T22:32:34.158Z,2.80
2022-12-11T22:35:39.440Z,2.40
2022-12-11T22:38:43.052Z,2.83
2022-12-11T22:41:47.150Z,3.33
2022-12-11T22:44:50.155Z,3.40
2022-12-11T22:47:53.108Z,3.50
2022-12-11T22:50:56.818Z,3.95
2022-12-11T22:54:00.884Z,3.50
2022-12-11T22:57:04.443Z,4.40
2022-12-11T23:00:14.667Z,4.13
2022-12-11T23:03:17.810Z,4.38
2022-12-11T23:06:25.426Z,4.72
2022-12-11T23:09:28.529Z,4.22
2022-12-11T23:12:31.713Z,4.13
2022-12-11T23:15:34.912Z,3.50
2022-12-11T23:18:38.409Z,5.28
2022-12-11T23:21:42.629Z,3.45
2022-12-11T23:24:48.829Z,4.30
2022-12-11T23:27:52.478Z,3.58
2022-12-11T23:30:55.992Z,5.10
2022-12-11T23:33:59.805Z,5.20
2022-12-11T23:37:04.060Z,4.10
2022-12-11T23:40:09.602Z,2.85
2022-12-11T23:43:13.398Z,2.75
2022-12-11T23:46:23.610Z,2.95
2022-12-11T23:49:27.497Z,5.10
2022-12-11T23:52:30.447Z,4.80
2022-12-11T23:55:33.690Z,4.68
2022-12-11T23:58:38.825Z,5.78
